Millstone, West Virginia
Current Conditions -  °F | °C
As of 1:54 AM on Thursday 23 Oct 2014 (Local Time) from KCRW Reporting Station
Overcast Overcast  
Wind Chill:   Ceiling: 2600
Heat Index:   Visibility: 10mi
Dew Point:   Wind: 7mph
Humidity: 80%   Direction: 320°NW
Pressure: 30.19"   Gusts: NA
Location:  38.8°N, 81.1°W
Report Text: KCRW 230554Z 32006KT 10SM OVC026 09/06 A3019 RMK AO2 SLP223 T00890056 10100 20089 56009
Loading
Personal Weather Stations






























Interactive Weather Map
Tropical Storm Tracking
New forecast layout! Learn more

10-Day Weather Forecast

Advertisements
Track Severe Weather on mobile